Felch, Michigan
Current Conditions -  °F | °C
As of 4:57 PM on Friday 28 Nov 2014 (Local Time) from KIMT Reporting Station
Light Snow Light Snow  
Wind Chill: 14°   Ceiling: 3100
Heat Index: 14°   Visibility: 1.7mi
Dew Point: 10°   Wind: 3mph
Humidity: 84%   Direction: 120°ESE
Pressure: 29.94"   Gusts: NA
Location:  46°N, 87.83°W
Report Text: KIMT 282257Z AUTO 12003KT 1 3/4SM -SN BR OVC031 M10/M12 A2994 RMK AO2 P0000 T11001122
Loading
Personal Weather Stations






























Interactive Weather Map New forecast layout! Learn more

10-Day Weather Forecast

Advertisements
Track Severe Weather on mobile